Time;durP1;ratioP1;P1;durP2;ratioP2;P2;SDS_P1;SDS_P2;PMS_P1;PMS_P2;Temp;Humidity;BMP_temperature;BMP_pressure;BME280_temperature;BME280_humidity;BME280_pressure;Samples;Min_cycle;Max_cycle;Signal;HPM_P1;HPM_P2
2021/09/05 00:01:18;;;;;;;22.25;12.00;;;;;;;16.16;87.26;101979.41;5036889;28;20535;-62
2021/09/05 00:03:45;;;;;;;24.90;12.27;;;;;;;16.12;88.66;101988.66;5042197;28;20076;-62
2021/09/05 00:06:11;;;;;;;22.55;11.75;;;;;;;16.10;87.50;101985.34;5039188;28;20073;-62
2021/09/05 00:08:38;;;;;;;22.10;12.25;;;;;;;16.07;88.59;101984.81;5040970;28;20053;-62
2021/09/05 00:11:04;;;;;;;24.67;12.40;;;;;;;16.08;87.97;101984.66;5044535;28;20501;-61
2021/09/05 00:13:31;;;;;;;21.60;12.32;;;;;;;16.07;88.64;101990.09;5016497;28;20476;-61
2021/09/05 00:15:57;;;;;;;21.77;11.85;;;;;;;16.01;88.55;101984.44;5047670;28;21435;-60
2021/09/05 00:18:24;;;;;;;23.25;11.90;;;;;;;15.98;89.36;101983.91;5037042;28;20462;-62
2021/09/05 00:20:50;;;;;;;21.95;11.85;;;;;;;15.94;88.80;101979.94;5047147;28;20180;-62
2021/09/05 00:23:17;;;;;;;25.98;11.95;;;;;;;15.90;89.08;101971.47;5039613;28;20084;-61
2021/09/05 00:25:43;;;;;;;23.75;12.07;;;;;;;15.86;89.58;101982.47;5042051;28;20102;-60
2021/09/05 00:28:10;;;;;;;23.83;12.40;;;;;;;15.84;89.24;101984.44;5042724;28;20148;-61
2021/09/05 00:30:37;;;;;;;23.70;12.40;;;;;;;15.84;88.61;101984.44;5040857;28;20174;-60
2021/09/05 00:33:07;;;;;;;21.70;11.90;;;;;;;15.80;89.10;101987.41;5045245;28;20086;-60
2021/09/05 00:35:34;;;;;;;20.25;12.45;;;;;;;15.80;88.67;101987.41;5041517;28;20053;-59
2021/09/05 00:38:04;;;;;;;24.52;13.18;;;;;;;15.79;89.35;101984.91;5044734;28;20058;-62
2021/09/05 00:40:30;;;;;;;22.08;12.60;;;;;;;15.77;88.70;101987.72;5034057;28;20640;-62
2021/09/05 00:42:57;;;;;;;23.35;12.00;;;;;;;15.78;88.15;101991.22;5043917;28;20132;-61
2021/09/05 00:45:23;;;;;;;26.15;12.45;;;;;;;15.78;88.51;101999.97;5046517;28;20163;-61
2021/09/05 00:47:49;;;;;;;23.88;12.73;;;;;;;15.77;88.43;101995.66;5041385;28;20433;-62
2021/09/05 00:50:16;;;;;;;23.38;12.05;;;;;;;15.73;88.19;101994.28;5045504;28;20053;-61
2021/09/05 00:52:43;;;;;;;26.98;13.27;;;;;;;15.68;88.49;101993.03;5037403;28;20057;-62
2021/09/05 00:55:10;;;;;;;24.10;12.60;;;;;;;15.69;89.11;101997.38;5038828;28;20168;-62
2021/09/05 00:57:37;;;;;;;23.55;11.82;;;;;;;15.65;88.99;101994.19;5034023;28;20559;-62
2021/09/05 01:00:04;;;;;;;22.52;11.52;;;;;;;15.64;88.60;101995.16;5025777;28;20509;-61
2021/09/05 01:02:38;;;;;;;26.23;13.13;;;;;;;15.60;88.97;101996.44;5039269;28;20085;-62
2021/09/05 01:05:06;;;;;;;27.17;12.10;;;;;;;15.57;88.58;101992.28;5043746;28;20404;-61
2021/09/05 01:07:33;;;;;;;23.65;12.70;;;;;;;15.58;88.65;101999.25;5042910;28;20075;-61
2021/09/05 01:10:00;;;;;;;25.27;13.50;;;;;;;15.51;89.40;101992.91;5017097;28;20087;-61
2021/09/05 01:12:27;;;;;;;22.35;12.13;;;;;;;15.49;89.47;102000.16;5045364;28;20501;-62
2021/09/05 01:14:53;;;;;;;22.83;12.70;;;;;;;15.42;90.06;101993.78;5039253;28;20088;-60
2021/09/05 01:17:20;;;;;;;27.08;13.60;;;;;;;15.42;89.91;101999.06;5046750;28;20135;-61
2021/09/05 01:19:47;;;;;;;24.35;12.50;;;;;;;15.38;90.24;101989.78;5039984;28;20083;-63
2021/09/05 01:22:14;;;;;;;25.38;12.68;;;;;;;15.39;90.03;101991.47;5039663;28;20080;-61
2021/09/05 01:24:40;;;;;;;25.25;12.15;;;;;;;15.38;90.12;101984.50;5046434;28;20099;-60
2021/09/05 01:27:07;;;;;;;23.98;11.82;;;;;;;15.36;90.09;101989.09;5022649;28;20048;-61
2021/09/05 01:29:33;;;;;;;21.80;11.02;;;;;;;15.37;89.82;101991.59;5044927;28;20080;-61
2021/09/05 01:32:00;;;;;;;23.05;12.00;;;;;;;15.33;90.26;101990.25;5039418;28;20136;-62
2021/09/05 01:34:26;;;;;;;28.92;13.23;;;;;;;15.30;90.03;101985.25;5041734;28;20132;-60
2021/09/05 01:36:53;;;;;;;22.25;11.30;;;;;;;15.35;89.43;102004.13;5034122;28;20160;-61
2021/09/05 01:39:22;;;;;;;25.17;12.77;;;;;;;15.32;90.17;101998.31;5041006;28;20147;-61
2021/09/05 01:41:49;;;;;;;23.83;11.98;;;;;;;15.29;90.04;101996.81;5045915;28;20083;-62
2021/09/05 01:44:18;;;;;;;18.98;11.45;;;;;;;15.26;90.32;101994.44;5035853;28;20492;-61
2021/09/05 01:46:45;;;;;;;29.67;12.23;;;;;;;15.27;89.76;101998.78;5045402;28;20148;-61
2021/09/05 01:49:11;;;;;;;21.63;11.88;;;;;;;15.24;90.11;101993.78;5032143;28;20080;-60
2021/09/05 01:51:38;;;;;;;21.67;11.35;;;;;;;15.20;90.10;101997.69;5045355;28;20376;-60
2021/09/05 01:54:05;;;;;;;22.33;11.60;;;;;;;15.18;89.50;101997.00;5037156;28;20148;-61
2021/09/05 01:56:32;;;;;;;24.65;12.00;;;;;;;15.13;90.11;101997.47;5046928;28;20052;-60
2021/09/05 01:59:00;;;;;;;22.88;11.32;;;;;;;15.12;90.94;101995.78;5043822;28;20076;-62
2021/09/05 02:01:28;;;;;;;21.50;12.55;;;;;;;15.11;90.65;101996.78;5034616;28;20044;-60
2021/09/05 02:03:55;;;;;;;;;;;;;;;15.07;91.10;101994.56;5039529;28;20454;-62
2021/09/05 02:06:21;;;;;;;20.73;11.30;;;;;;;15.05;91.40;101992.06;5040232;28;19924;-61
2021/09/05 02:08:48;;;;;;;22.58;10.70;;;;;;;15.07;90.56;101997.19;5044405;28;20080;-59
2021/09/05 02:11:15;;;;;;;21.83;11.70;;;;;;;15.03;91.00;101992.22;5039616;28;20076;-62
2021/09/05 02:13:41;;;;;;;20.83;11.35;;;;;;;15.05;90.40;101999.16;5044539;28;20163;-61
2021/09/05 02:16:08;;;;;;;21.55;12.30;;;;;;;15.02;90.88;101998.47;5042087;28;20115;-61
2021/09/05 02:18:35;;;;;;;27.35;12.20;;;;;;;15.01;90.76;101996.84;5029010;28;20052;-61
2021/09/05 02:21:01;;;;;;;26.30;12.35;;;;;;;15.00;89.89;101995.16;5045534;28;20136;-61
2021/09/05 02:23:29;;;;;;;;;;;;;;;15.01;90.46;101998.63;5038055;28;20060;-60
2021/09/05 02:25:56;;;;;;;22.15;11.30;;;;;;;14.97;90.09;101997.25;5046015;28;20039;-61
2021/09/05 02:28:22;;;;;;;23.77;10.90;;;;;;;14.93;90.35;101996.72;5037452;28;20148;-62
2021/09/05 02:30:49;;;;;;;23.17;12.07;;;;;;;14.92;90.81;102005.63;5040766;28;20053;-61
2021/09/05 02:33:16;;;;;;;21.70;11.07;;;;;;;14.92;90.60;102002.97;5038309;28;20049;-62
2021/09/05 02:35:43;;;;;;;27.50;12.70;;;;;;;14.86;91.28;102000.06;5041531;28;20100;-61
2021/09/05 02:38:10;;;;;;;22.98;12.13;;;;;;;14.85;90.78;102001.06;5044605;28;20052;-59
2021/09/05 02:40:37;;;;;;;21.33;11.05;;;;;;;14.78;91.48;102008.75;5039261;28;20148;-61
2021/09/05 02:43:04;;;;;;;25.08;11.45;;;;;;;14.72;91.52;102010.16;5041476;28;20080;-61
2021/09/05 02:45:30;;;;;;;24.00;11.98;;;;;;;14.71;91.18;102011.13;5032742;28;20061;-61
2021/09/05 02:47:58;;;;;;;28.83;11.77;;;;;;;14.71;91.80;102015.59;5043413;28;20067;-62
2021/09/05 02:50:24;;;;;;;23.97;12.07;;;;;;;14.67;91.71;102014.22;5040533;28;20140;-60
2021/09/05 02:52:51;;;;;;;24.63;10.68;;;;;;;14.68;91.40;102014.06;5038558;28;20848;-61
2021/09/05 02:55:17;;;;;;;23.38;11.05;;;;;;;14.68;91.22;102023.78;5043476;28;20080;-61
2021/09/05 02:57:44;;;;;;;23.48;12.27;;;;;;;14.67;91.79;102014.22;5029732;28;20075;-61
2021/09/05 03:00:11;;;;;;;19.92;11.07;;;;;;;14.69;91.31;102017.53;5040177;28;20186;-61
2021/09/05 03:02:40;;;;;;;20.67;11.45;;;;;;;14.67;91.14;102014.22;5035391;28;20063;-61
2021/09/05 03:05:07;;;;;;;19.58;11.20;;;;;;;14.65;91.64;102016.16;5041248;28;20110;-62
2021/09/05 03:07:35;;;;;;;23.00;10.82;;;;;;;14.58;92.20;102007.97;5039359;28;20047;-61
2021/09/05 03:10:01;;;;;;;27.65;11.65;;;;;;;14.61;90.72;102005.06;5043241;28;20144;-61
2021/09/05 03:12:28;;;;;;;22.08;11.52;;;;;;;14.57;91.41;102003.69;5038580;28;20056;-61
2021/09/05 03:14:54;;;;;;;22.08;10.98;;;;;;;14.54;92.02;102006.56;5035328;28;20540;-61
2021/09/05 03:17:21;;;;;;;20.30;10.75;;;;;;;14.51;92.06;102005.03;5044966;28;20148;-61
2021/09/05 03:19:47;;;;;;;19.65;10.75;;;;;;;14.51;91.55;101998.94;5037611;28;20548;-61
2021/09/05 03:22:14;;;;;;;23.08;11.98;;;;;;;14.47;92.36;102008.13;5044505;28;20114;-61
2021/09/05 03:24:41;;;;;;;22.08;11.32;;;;;;;14.43;92.27;101999.66;5017513;28;20177;-60
2021/09/05 03:27:07;;;;;;;19.58;11.23;;;;;;;14.45;91.93;102005.63;5039960;28;20053;-62
2021/09/05 03:29:34;;;;;;;25.60;12.23;;;;;;;14.40;92.38;102008.66;5043046;28;20148;-62
2021/09/05 03:32:00;;;;;;;24.30;11.82;;;;;;;14.37;92.34;102003.69;5038780;28;20143;-61
2021/09/05 03:34:26;;;;;;;21.65;11.40;;;;;;;14.33;92.75;102004.97;5044173;28;20262;-61
2021/09/05 03:36:53;;;;;;;20.00;11.02;;;;;;;14.34;92.57;102001.31;5039595;28;20114;-61
2021/09/05 03:39:19;;;;;;;23.45;11.60;;;;;;;14.30;92.73;102002.59;5042158;28;20072;-61
2021/09/05 03:41:46;;;;;;;23.88;11.30;;;;;;;14.31;92.74;101999.00;5021896;28;20583;-61
2021/09/05 03:44:12;;;;;;;22.15;11.77;;;;;;;14.30;92.63;102002.59;5025014;28;20049;-61
2021/09/05 03:46:39;;;;;;;20.10;11.18;;;;;;;14.27;93.22;101999.41;5049176;28;20149;-61
2021/09/05 03:49:06;;;;;;;24.55;11.63;;;;;;;14.26;93.21;102001.22;5036989;28;20561;-61
2021/09/05 03:51:32;;;;;;;24.40;11.60;;;;;;;14.22;93.60;102003.28;5043704;28;20131;-61
2021/09/05 03:53:59;;;;;;;24.95;11.90;;;;;;;14.17;93.75;102002.03;5040987;28;20131;-61
2021/09/05 03:56:25;;;;;;;23.27;11.93;;;;;;;14.17;93.74;102002.91;5048606;28;20095;-62
2021/09/05 03:58:51;;;;;;;20.15;11.50;;;;;;;14.14;94.04;102003.16;5041030;28;20068;-60
2021/09/05 04:01:19;;;;;;;26.15;12.27;;;;;;;14.13;94.05;101998.88;5048496;28;20084;-61
2021/09/05 04:03:45;;;;;;;24.23;11.40;;;;;;;14.11;95.12;102002.63;5042025;28;20076;-61
2021/09/05 04:06:13;;;;;;;19.92;11.75;;;;;;;14.09;93.75;102005.38;5037556;28;20056;-60
2021/09/05 04:08:46;;;;;;;21.70;11.65;;;;;;;14.10;94.47;102012.34;5046007;28;20160;-59
2021/09/05 04:11:12;;;;;;;20.65;11.52;;;;;;;14.06;95.04;102013.59;5041552;28;20155;-60
2021/09/05 04:13:38;;;;;;;24.58;11.25;;;;;;;14.00;95.25;102009.72;5046934;28;20052;-62
2021/09/05 04:16:05;;;;;;;23.63;11.50;;;;;;;14.02;94.81;102009.56;5041765;28;20127;-60
2021/09/05 04:18:32;;;;;;;24.00;12.52;;;;;;;13.99;94.94;102008.03;5036518;28;20546;-61
2021/09/05 04:20:58;;;;;;;23.85;11.00;;;;;;;14.02;94.73;102013.03;5046939;28;20160;-60
2021/09/05 04:23:25;;;;;;;21.75;11.68;;;;;;;14.02;94.96;102018.31;5037819;28;20145;-61
2021/09/05 04:25:51;;;;;;;24.05;11.73;;;;;;;13.99;95.30;102018.59;5048184;28;20081;-61
2021/09/05 04:28:18;;;;;;;21.42;11.32;;;;;;;14.03;93.75;102013.88;5039396;28;20139;-61
2021/09/05 04:30:45;;;;;;;25.38;11.63;;;;;;;14.02;94.51;102022.78;5043521;28;20180;-61
2021/09/05 04:33:11;;;;;;;22.77;10.63;;;;;;;14.04;94.31;102012.91;5033764;28;20716;-62
2021/09/05 04:35:38;;;;;;;20.30;11.45;;;;;;;14.03;94.63;102021.78;5046913;28;20151;-61
2021/09/05 04:38:04;;;;;;;24.25;11.40;;;;;;;13.99;94.99;102021.22;5047159;28;20568;-61
2021/09/05 04:40:31;;;;;;;22.63;11.20;;;;;;;13.99;95.09;102026.50;5040763;28;20812;-61
2021/09/05 04:42:57;;;;;;;25.27;12.32;;;;;;;13.98;94.59;102029.31;5045950;28;20073;-61
2021/09/05 04:45:24;;;;;;;21.00;11.18;;;;;;;13.93;94.78;102032.34;5037896;28;20569;-61
2021/09/05 04:47:50;;;;;;;21.35;10.85;;;;;;;13.91;94.83;102031.66;5041467;28;20140;-61
2021/09/05 04:50:16;;;;;;;23.95;11.90;;;;;;;13.92;94.38;102043.06;5023518;28;20052;-61
2021/09/05 04:52:43;;;;;;;24.48;10.50;;;;;;;13.89;94.33;102038.03;5044917;28;20156;-62
2021/09/05 04:55:09;;;;;;;21.42;10.95;;;;;;;13.88;94.76;102034.56;5046866;28;20436;-61
2021/09/05 04:57:36;;;;;;;21.15;11.23;;;;;;;13.85;95.17;102034.84;5040908;28;20137;-61
2021/09/05 05:00:03;;;;;;;22.55;11.00;;;;;;;13.84;95.29;102039.28;5038630;28;20571;-61
2021/09/05 05:02:29;;;;;;;19.75;11.48;;;;;;;13.81;95.34;102049.28;5037238;28;20076;-62
2021/09/05 05:04:56;;;;;;;23.20;11.60;;;;;;;13.79;95.30;102043.31;5046179;28;20051;-61
2021/09/05 05:07:22;;;;;;;23.77;10.85;;;;;;;13.75;96.08;102042.75;5037234;28;20168;-61
2021/09/05 05:09:53;;;;;;;19.70;11.30;;;;;;;13.74;96.62;102048.16;5044531;28;20556;-61
2021/09/05 05:12:20;;;;;;;20.80;10.68;;;;;;;13.75;96.11;102041.91;5037009;28;20068;-61
2021/09/05 05:14:47;;;;;;;21.50;10.68;;;;;;;13.74;96.46;102050.78;5040814;28;20123;-61
2021/09/05 05:17:14;;;;;;;18.83;10.43;;;;;;;13.75;96.34;102049.81;5044188;28;20139;-61
2021/09/05 05:19:40;;;;;;;18.45;10.57;;;;;;;13.73;96.48;102052.59;5036901;28;20165;-60
2021/09/05 05:22:07;;;;;;;25.10;10.93;;;;;;;13.75;96.34;102055.94;5045231;28;20136;-61
2021/09/05 05:24:33;;;;;;;21.20;10.05;;;;;;;13.75;96.25;102061.19;5036268;28;20495;-60
2021/09/05 05:27:00;;;;;;;20.13;10.05;;;;;;;13.76;96.10;102059.38;5039827;28;20139;-59
2021/09/05 05:29:26;;;;;;;18.25;9.57;;;;;;;13.77;95.78;102061.06;5033096;28;20531;-62
2021/09/05 05:31:53;;;;;;;26.65;11.15;;;;;;;13.75;96.03;102055.09;5042756;28;20585;-61
2021/09/05 05:34:20;;;;;;;19.70;10.43;;;;;;;13.77;95.42;102063.72;5045740;28;20099;-61
2021/09/05 05:36:47;;;;;;;19.97;10.50;;;;;;;13.76;95.91;102054.97;5038565;28;20084;-61
2021/09/05 05:39:13;;;;;;;19.65;10.05;;;;;;;13.78;95.41;102060.94;5041002;28;20045;-62
2021/09/05 05:41:40;;;;;;;18.88;9.93;;;;;;;13.78;94.98;102058.31;5033273;28;20583;-59
2021/09/05 05:44:06;;;;;;;19.48;10.35;;;;;;;13.80;95.29;102053.72;5044245;28;20057;-61
2021/09/05 05:46:36;;;;;;;23.50;11.00;;;;;;;13.75;95.79;102055.94;5038996;28;20055;-61
2021/09/05 05:49:02;;;;;;;20.20;10.40;;;;;;;13.78;95.80;102060.94;5041805;28;20256;-61
2021/09/05 05:51:29;;;;;;;25.23;10.43;;;;;;;13.74;95.77;102067.47;5046997;28;20132;-61
2021/09/05 05:53:57;;;;;;;21.45;11.25;;;;;;;13.74;96.06;102063.97;5034801;28;20076;-61
2021/09/05 05:56:23;;;;;;;17.75;10.15;;;;;;;13.73;96.66;102064.97;5040055;28;20171;-60
2021/09/05 05:58:49;;;;;;;19.35;10.98;;;;;;;13.73;96.78;102059.69;5035215;28;20164;-62
2021/09/05 06:01:16;;;;;;;23.00;10.52;;;;;;;13.74;96.38;102063.97;5045637;28;20576;-61
2021/09/05 06:03:43;;;;;;;20.40;9.82;;;;;;;13.78;96.12;102065.34;5036569;28;20512;-60
2021/09/05 06:06:10;;;;;;;21.25;11.63;;;;;;;13.75;97.40;102068.28;5044373;28;20071;-61
2021/09/05 06:08:37;;;;;;;19.88;10.13;;;;;;;13.79;96.31;102067.88;5040575;28;20140;-61
2021/09/05 06:11:03;;;;;;;20.23;10.43;;;;;;;13.79;96.62;102067.03;5037313;28;20051;-62
2021/09/05 06:13:30;;;;;;;19.35;11.30;;;;;;;13.84;95.88;102075.38;5045169;28;20143;-61
2021/09/05 06:15:56;;;;;;;22.02;11.50;;;;;;;13.85;96.55;102075.22;5040251;28;20048;-59
2021/09/05 06:18:23;;;;;;;21.83;10.70;;;;;;;13.87;96.01;102064.53;5039419;28;20056;-62
2021/09/05 06:20:50;;;;;;;24.08;12.00;;;;;;;13.92;95.85;102074.69;5037030;28;20132;-61
2021/09/05 06:23:16;;;;;;;20.55;10.07;;;;;;;13.97;94.79;102078.56;5043374;28;20148;-62
2021/09/05 06:25:43;;;;;;;22.80;12.15;;;;;;;14.02;95.56;102080.81;5046101;28;20857;-61
2021/09/05 06:28:09;;;;;;;21.20;10.90;;;;;;;14.02;95.00;102084.28;5039040;28;20103;-62
2021/09/05 06:30:36;;;;;;;23.55;12.15;;;;;;;14.06;96.30;102081.38;5045528;28;20778;-62
2021/09/05 06:33:02;;;;;;;21.38;11.65;;;;;;;14.09;96.18;102073.16;5028799;28;20569;-60
2021/09/05 06:35:30;;;;;;;21.70;11.50;;;;;;;14.12;95.28;102080.81;5042959;28;20143;-62
2021/09/05 06:37:56;;;;;;;23.30;10.93;;;;;;;14.15;96.16;102089.28;5038603;28;20172;-61
2021/09/05 06:40:23;;;;;;;28.52;12.27;;;;;;;14.15;96.39;102083.16;5045125;28;20160;-62
2021/09/05 06:42:49;;;;;;;24.95;11.90;;;;;;;14.13;96.74;102080.69;5038257;28;20135;-64
2021/09/05 06:45:15;;;;;;;22.02;12.20;;;;;;;14.19;96.52;102087.19;5039817;28;20087;-62
2021/09/05 06:47:42;;;;;;;21.55;11.13;;;;;;;14.21;96.32;102086.09;5039951;28;20577;-61
2021/09/05 06:50:11;;;;;;;24.08;12.70;;;;;;;14.23;96.74;102089.41;5038997;28;20152;-60
2021/09/05 06:52:38;;;;;;;21.48;11.48;;;;;;;14.28;95.85;102086.34;5043995;28;20489;-60
2021/09/05 06:55:05;;;;;;;20.73;11.48;;;;;;;14.31;95.37;102083.44;5022442;28;20136;-61
2021/09/05 06:57:33;;;;;;;22.77;10.57;;;;;;;14.36;94.39;102083.84;5043671;28;20602;-61
2021/09/05 07:00:03;;;;;;;22.27;11.15;;;;;;;14.40;93.83;102081.75;5033995;28;20172;-61
2021/09/05 07:02:30;;;;;;;20.65;11.30;;;;;;;14.40;94.32;102092.31;5039663;28;20076;-60
2021/09/05 07:04:57;;;;;;;21.45;11.23;;;;;;;14.46;93.22;102090.94;5026651;28;20072;-61
2021/09/05 07:07:41;;;;;;;21.92;12.05;;;;;;;14.48;93.94;102096.91;5035389;28;20051;-62
2021/09/05 07:10:08;;;;;;;26.35;12.82;;;;;;;14.49;93.38;102088.00;5043477;28;20476;-62
2021/09/05 07:12:39;;;;;;;22.83;11.35;;;;;;;14.53;93.07;102095.50;5033466;28;20301;-62
2021/09/05 07:15:06;;;;;;;22.95;12.43;;;;;;;14.57;92.67;102101.38;5045156;28;20099;-62
2021/09/05 07:17:32;;;;;;;23.52;11.40;;;;;;;14.58;93.09;102103.88;5038280;28;20728;-62
2021/09/05 07:19:59;;;;;;;22.83;12.18;;;;;;;14.66;93.04;102108.41;5048796;28;20048;-61
2021/09/05 07:22:27;;;;;;;24.02;12.20;;;;;;;14.69;92.70;102110.78;5047851;28;20052;-62
2021/09/05 07:24:53;;;;;;;19.63;10.07;;;;;;;14.73;92.86;102108.72;5039664;28;20053;-60
2021/09/05 07:27:20;;;;;;;16.33;9.43;;;;;;;14.76;91.72;102109.25;5049451;28;20215;-62
2021/09/05 07:29:46;;;;;;;21.48;11.88;;;;;;;14.82;91.65;102107.84;5045081;28;20139;-61
2021/09/05 07:32:13;;;;;;;18.85;10.65;;;;;;;14.91;90.37;102108.78;5052091;28;20076;-62
2021/09/05 07:34:39;;;;;;;16.77;8.95;;;;;;;15.02;88.34;102116.56;5045670;28;20420;-62
2021/09/05 07:37:06;;;;;;;19.20;10.48;;;;;;;15.04;89.36;102119.88;5046158;28;20143;-61
2021/09/05 07:39:32;;;;;;;19.58;10.20;;;;;;;15.06;88.91;102117.94;5046469;28;20151;-62
2021/09/05 07:41:59;;;;;;;21.38;10.15;;;;;;;15.12;88.09;102127.09;5043704;28;20051;-62
2021/09/05 07:44:25;;;;;;;19.48;11.48;;;;;;;15.13;88.37;102121.69;5050425;28;20076;-62
2021/09/05 07:46:52;;;;;;;22.30;11.68;;;;;;;15.12;88.98;102124.44;5045433;28;20164;-61
2021/09/05 07:49:18;;;;;;;24.65;11.57;;;;;;;15.19;88.85;102120.22;5049563;28;20540;-62
2021/09/05 07:51:45;;;;;;;21.13;11.70;;;;;;;15.19;89.04;102122.88;5038737;28;20112;-61
2021/09/05 07:54:11;;;;;;;21.27;10.10;;;;;;;15.26;88.47;102131.91;5046210;28;20076;-62
2021/09/05 07:56:38;;;;;;;17.73;9.00;;;;;;;15.39;87.21;102132.41;5050471;28;20759;-62
2021/09/05 07:59:04;;;;;;;16.77;9.73;;;;;;;15.38;87.11;102130.72;5046352;28;20053;-60
2021/09/05 08:01:31;;;;;;;19.90;10.43;;;;;;;15.43;87.57;102136.44;5050506;28;20128;-62
2021/09/05 08:03:58;;;;;;;17.85;10.05;;;;;;;15.55;87.27;102142.34;5039931;28;20057;-62
2021/09/05 08:06:25;;;;;;;18.25;10.15;;;;;;;15.62;87.26;102146.09;5029064;28;20045;-62
2021/09/05 08:08:52;;;;;;;18.00;10.18;;;;;;;15.68;86.68;102152.59;5044235;28;20055;-62
2021/09/05 08:11:18;;;;;;;18.33;8.73;;;;;;;15.79;86.06;102151.59;5050061;28;20144;-61
2021/09/05 08:13:45;;;;;;;17.10;10.07;;;;;;;15.89;86.66;102151.53;5048096;28;20102;-62
2021/09/05 08:16:11;;;;;;;18.50;9.52;;;;;;;16.03;85.81;102158.94;5045936;28;20737;-62
2021/09/05 08:18:38;;;;;;;19.92;10.63;;;;;;;16.15;85.40;102163.06;5043943;28;20152;-61
2021/09/05 08:21:06;;;;;;;20.13;10.57;;;;;;;16.33;84.66;102164.88;5040252;28;20516;-62
2021/09/05 08:23:34;;;;;;;;;;;;;;;16.55;83.38;102155.63;5050908;28;20131;-61
2021/09/05 08:26:01;;;;;;;20.27;10.40;;;;;;;16.76;82.23;102158.78;5043831;28;19964;-62
2021/09/05 08:28:27;;;;;;;18.73;10.02;;;;;;;16.97;81.70;102161.09;5049516;28;20080;-62
2021/09/05 08:30:54;;;;;;;21.40;10.50;;;;;;;17.16;81.35;102161.88;5049221;28;20132;-61
2021/09/05 08:33:20;;;;;;;18.77;8.95;;;;;;;17.36;79.65;102165.13;5035072;28;20461;-62
2021/09/05 08:35:47;;;;;;;18.88;10.25;;;;;;;17.53;79.13;102166.84;5044102;28;20141;-62
2021/09/05 08:38:13;;;;;;;18.35;10.10;;;;;;;17.72;77.88;102162.28;5039661;28;20080;-62
2021/09/05 08:40:45;;;;;;;20.25;11.27;;;;;;;17.94;78.70;102168.84;5047761;28;20076;-62
2021/09/05 08:43:13;;;;;;;20.40;10.98;;;;;;;18.13;78.50;102171.22;5038399;28;20106;-61
2021/09/05 08:45:40;;;;;;;19.02;10.80;;;;;;;18.25;76.57;102173.53;5042445;28;20496;-57
2021/09/05 08:48:07;;;;;;;20.92;11.82;;;;;;;18.40;76.41;102179.03;5037490;28;20053;-60
2021/09/05 08:50:34;;;;;;;17.27;9.32;;;;;;;18.58;73.79;102171.72;5041941;28;20553;-61
2021/09/05 08:53:02;;;;;;;22.77;10.65;;;;;;;18.76;73.26;102174.25;5045612;28;20136;-62
2021/09/05 08:55:29;;;;;;;19.33;10.37;;;;;;;18.96;73.97;102177.41;5022349;28;20084;-62
2021/09/05 08:57:55;;;;;;;22.90;11.15;;;;;;;18.99;73.41;102176.22;5046805;28;20542;-62
2021/09/05 09:00:22;;;;;;;17.40;10.68;;;;;;;19.13;72.96;102176.38;5036040;28;20048;-62
2021/09/05 09:02:53;;;;;;;18.75;11.15;;;;;;;19.32;72.79;102184.94;5041920;28;20060;-62
2021/09/05 09:05:35;;;;;;;17.60;10.65;;;;;;;19.47;71.96;102177.91;5040407;28;20154;-62
2021/09/05 09:08:13;;;;;;;18.23;10.10;;;;;;;19.56;71.15;102176.88;5044606;28;20132;-61
2021/09/05 09:11:03;;;;;;;19.80;10.67;;;;;;;19.65;70.55;102177.66;5046183;28;20136;-62
2021/09/05 09:13:40;;;;;;;18.50;10.32;;;;;;;19.75;70.16;102191.63;5043403;28;20223;-62
2021/09/05 09:16:11;;;;;;;18.33;10.32;;;;;;;19.88;69.69;102191.06;5024720;28;20092;-62
2021/09/05 09:18:41;;;;;;;20.08;11.20;;;;;;;20.02;69.36;102194.81;5037865;28;20061;-62
2021/09/05 09:21:10;;;;;;;20.38;11.30;;;;;;;20.12;68.57;102190.09;5044877;28;20145;-62
2021/09/05 09:23:38;;;;;;;21.42;10.88;;;;;;;20.20;68.25;102191.88;5032179;28;20053;-62
2021/09/05 09:26:10;;;;;;;20.88;10.27;;;;;;;20.33;67.73;102194.78;5045031;28;20136;-62
2021/09/05 09:28:36;;;;;;;21.80;12.23;;;;;;;20.47;67.13;102195.00;5034622;28;20491;-61
2021/09/05 09:31:24;;;;;;;16.40;9.82;;;;;;;20.62;66.69;102192.41;5041257;28;20057;-62
2021/09/05 09:33:55;;;;;;;14.85;8.85;;;;;;;20.78;65.74;102186.09;5037407;28;20049;-62
2021/09/05 09:36:25;;;;;;;16.13;10.20;;;;;;;20.82;64.80;102185.56;5045591;28;20064;-62
2021/09/05 09:39:04;;;;;;;19.50;11.02;;;;;;;20.95;65.29;102190.28;5045615;28;20053;-61
2021/09/05 09:41:33;;;;;;;22.75;10.30;;;;;;;21.06;64.72;102184.50;5037738;28;20472;-62
2021/09/05 09:44:02;;;;;;;20.67;11.02;;;;;;;21.15;64.01;102193.25;5039279;28;20049;-62
2021/09/05 09:46:31;;;;;;;17.08;10.38;;;;;;;21.30;64.60;102190.56;5038617;28;20457;-62
2021/09/05 09:49:02;;;;;;;19.42;10.73;;;;;;;21.46;63.86;102184.25;5028220;28;20084;-62
2021/09/05 09:51:30;;;;;;;19.20;9.65;;;;;;;21.62;62.06;102184.06;5038394;28;20457;-62
2021/09/05 09:53:57;;;;;;;22.00;11.05;;;;;;;21.75;62.58;102182.56;5042216;28;20140;-62
2021/09/05 09:56:26;;;;;;;18.38;10.93;;;;;;;21.92;62.98;102176.78;5035410;28;20127;-63
2021/09/05 09:58:55;;;;;;;16.55;10.18;;;;;;;22.03;62.20;102175.47;5038737;28;20624;-61
2021/09/05 10:01:24;;;;;;;17.83;9.80;;;;;;;22.22;61.90;102181.19;5027230;28;20132;-62
2021/09/05 10:03:52;;;;;;;15.57;9.30;;;;;;;22.38;61.79;102177.47;5036857;28;20057;-62
2021/09/05 10:06:22;;;;;;;16.08;9.82;;;;;;;22.51;60.48;102177.59;5044680;28;20063;-63
2021/09/05 10:08:50;;;;;;;16.60;10.30;;;;;;;22.65;60.19;102176.66;5014756;28;20502;-61
2021/09/05 10:11:20;;;;;;;17.85;9.68;;;;;;;22.73;58.08;102173.03;5041308;28;20136;-63
2021/09/05 10:13:48;;;;;;;16.05;9.95;;;;;;;22.90;59.16;102173.56;5033788;28;20052;-62
2021/09/05 10:16:15;;;;;;;;;;;;;;;23.00;58.07;102175.91;5046441;28;20059;-59
2021/09/05 10:18:46;;;;;;;15.85;8.70;;;;;;;23.07;56.21;102163.41;5043366;28;20021;-61
2021/09/05 10:21:15;;;;;;;15.50;9.07;;;;;;;23.16;55.51;102166.75;5038149;28;20084;-62
2021/09/05 10:23:47;;;;;;;15.55;9.10;;;;;;;23.28;55.88;102174.00;5039992;28;20080;-62
2021/09/05 10:26:15;;;;;;;17.08;9.20;;;;;;;23.48;54.67;102171.47;5034318;28;20056;-60
2021/09/05 10:28:50;;;;;;;15.43;9.18;;;;;;;23.55;53.97;102167.97;5044150;28;20132;-60
2021/09/05 10:31:28;;;;;;;15.93;8.45;;;;;;;23.77;54.56;102160.63;5038728;28;20709;-62
2021/09/05 10:33:57;;;;;;;15.05;7.63;;;;;;;23.83;53.21;102167.88;5042470;28;20049;-60
2021/09/05 10:36:25;;;;;;;;;;;;;;;23.92;52.37;102161.31;5036362;28;20504;-60
2021/09/05 10:39:03;;;;;;;14.13;7.57;;;;;;;23.99;51.83;102159.47;5037199;28;20039;-59
2021/09/05 10:41:30;;;;;;;17.42;8.70;;;;;;;24.12;52.03;102163.19;5045713;28;20036;-60
2021/09/05 10:44:05;;;;;;;13.53;8.60;;;;;;;24.11;51.66;102162.38;5034856;28;20139;-62
2021/09/05 10:46:36;;;;;;;19.27;9.30;;;;;;;24.28;52.76;102162.78;5045322;28;20048;-59
2021/09/05 10:49:04;;;;;;;15.60;8.77;;;;;;;24.30;53.03;102160.72;5037011;28;20084;-60
2021/09/05 10:51:33;;;;;;;13.60;8.18;;;;;;;24.52;53.51;102156.03;5038764;28;20068;-60
2021/09/05 10:54:11;;;;;;;15.35;8.80;;;;;;;24.66;51.80;102162.22;5034129;28;20052;-61
2021/09/05 10:56:44;;;;;;;13.50;7.68;;;;;;;24.84;53.99;102154.34;5045278;28;20115;-63
2021/09/05 10:59:14;;;;;;;17.15;7.82;;;;;;;24.90;50.05;102146.50;5036960;28;20107;-62
2021/09/05 11:01:55;;;;;;;12.77;7.43;;;;;;;24.93;49.61;102154.13;5044902;28;20855;-63
2021/09/05 11:04:41;;;;;;;15.95;8.57;;;;;;;25.13;50.42;102146.00;5037100;28;20095;-62
2021/09/05 11:07:10;;;;;;;14.23;7.80;;;;;;;25.11;48.80;102140.03;5041109;28;20162;-63
2021/09/05 11:09:41;;;;;;;15.80;8.55;;;;;;;25.36;50.48;102134.78;5042919;28;20172;-61
2021/09/05 11:12:22;;;;;;;16.98;7.97;;;;;;;25.50;49.37;102138.25;5038113;28;20691;-61
2021/09/05 11:14:50;;;;;;;14.40;8.35;;;;;;;25.61;49.08;102135.69;5042898;28;20506;-60